»·PEaware :: ASH001 KBUR-KLAS

ASH001 :: KBUR-KLAS

FLIGHT INFORMATION

Flight Status: Arrived
Operator:
Mesa Airlines
More flights by this operator :: More flights under this callsign
Pilot: Matt C. (2277)
Aircraft: BRITISH AERO RJ-70
(RJ70)
More flights by this aircraft type
Origin: KBUR Bob Hope-Burbank
United States
Destination: KLAS McCarran Intl
United States
More flights between these airports :: More routes between these airports
Route: VNY9 DAG KEPEC3
File this flight plan on PilotEdge
Remarks: I5
Altitude:
(Current/Filed)
25,000ft
Speed:
(Current/Filed)
400kts
Departed: 10-Dec-13 07:50 PM
Arrived: 10-Dec-13 08:52 PM
Distance/Time
Traveled:
194nm/1:02
Distance/Time
To Go:
Arrived

Flight Plot

Page will automatically refresh every two minutes.


Map Options




Map Legend


Flown Route
Filed Route
Departure Airport
Arrival Airport
Navaid (VOR, NDB)
Fix

Horizontal Profiles

Position Reports

Time Latitude Longitude Heading Altitude Ground
Speed
10-Dec-13 19:34 34.196707 -118.354996 0 786ft 0kts
10-Dec-13 19:35 34.196711 -118.354996 0 786ft 0kts
10-Dec-13 19:36 34.196714 -118.354996 0 786ft 0kts
10-Dec-13 19:37 34.196717 -118.354996 0 786ft 0kts
10-Dec-13 19:38 34.196720 -118.354996 0 786ft 0kts
10-Dec-13 19:39 34.196723 -118.354996 0 786ft 0kts
10-Dec-13 19:40 34.196726 -118.354996 0 786ft 0kts
10-Dec-13 19:41 34.196730 -118.354996 0 786ft 0kts
10-Dec-13 19:42 34.196733 -118.354996 0 786ft 0kts
10-Dec-13 19:43 34.196736 -118.354996 0 786ft 0kts
10-Dec-13 19:44 34.196739 -118.354996 0 786ft 0kts
10-Dec-13 19:45 34.197259 -118.355070 349 786ft 13kts
10-Dec-13 19:46 34.204098 -118.356800 345 786ft 34kts
10-Dec-13 19:47 34.212130 -118.359544 269 786ft 0kts
10-Dec-13 19:48 34.212130 -118.359549 269 786ft 0kts
10-Dec-13 19:49 34.207229 -118.359019 166 786ft 114kts
10-Dec-13 19:50 34.164110 -118.359911 201 3438ft 229kts
10-Dec-13 19:51 34.169190 -118.409485 310 8280ft 136kts
10-Dec-13 19:52 34.193676 -118.450817 309 11263ft 157kts
10-Dec-13 19:53 34.217690 -118.494314 282 13960ft 162kts
10-Dec-13 19:54 34.252243 -118.519604 20 16207ft 189kts
10-Dec-13 19:55 34.296524 -118.479981 40 19280ft 209kts
10-Dec-13 19:56 34.348183 -118.432549 37 21637ft 262kts
10-Dec-13 19:57 34.402630 -118.385915 35 23353ft 308kts
10-Dec-13 19:58 34.473676 -118.319127 47 24866ft 344kts
10-Dec-13 19:59 34.548009 -118.202083 53 25280ft 392kts
10-Dec-13 20:00 34.603141 -118.111595 52 25278ft 407kts
10-Dec-13 20:01 34.646072 -117.984915 80 25283ft 413kts
10-Dec-13 20:02 34.657516 -117.844662 84 25282ft 414kts
10-Dec-13 20:03 34.677042 -117.706959 73 25280ft 412kts
10-Dec-13 20:04 34.711849 -117.573574 71 25286ft 411kts
10-Dec-13 20:05 34.746849 -117.440775 71 25288ft 411kts
10-Dec-13 20:06 34.780418 -117.307557 72 25290ft 411kts
10-Dec-13 20:07 34.813838 -117.174683 72 25288ft 411kts
10-Dec-13 20:08 34.847209 -117.041160 72 25293ft 412kts
10-Dec-13 20:09 34.880494 -116.907410 72 25294ft 412kts
10-Dec-13 20:10 34.913790 -116.772736 72 25271ft 415kts
10-Dec-13 20:11 34.947003 -116.637344 72 25274ft 416kts
10-Dec-13 20:12 35.003933 -116.516490 46 25274ft 414kts
10-Dec-13 20:13 35.087238 -116.418722 42 24685ft 415kts
10-Dec-13 20:14 35.165597 -116.324372 44 24252ft 389kts
10-Dec-13 20:15 35.242051 -116.228774 44 22808ft 388kts
10-Dec-13 20:16 35.315969 -116.135547 45 21211ft 371kts
10-Dec-13 20:17 35.387440 -116.045226 46 19703ft 364kts
10-Dec-13 20:18 35.457460 -115.957158 45 18199ft 355kts
10-Dec-13 20:19 35.522879 -115.874940 45 16756ft 312kts
10-Dec-13 20:20 35.581817 -115.800816 45 15411ft 301kts
10-Dec-13 20:21 35.640002 -115.726790 45 13969ft 298kts
10-Dec-13 20:22 35.696741 -115.654174 45 13026ft 288kts
10-Dec-13 20:23 35.754490 -115.584473 28 13018ft 292kts
10-Dec-13 20:24 35.834591 -115.569202 1 13023ft 293kts
10-Dec-13 20:25 35.916042 -115.566737 1 13017ft 293kts
10-Dec-13 20:26 35.988683 -115.536409 57 12720ft 282kts
10-Dec-13 20:27 36.014639 -115.447151 72 11825ft 272kts
10-Dec-13 20:28 36.031010 -115.357449 91 10609ft 267kts
10-Dec-13 20:29 36.025180 -115.267469 95 9706ft 260kts
10-Dec-13 20:30 36.018342 -115.180265 95 8941ft 240kts
10-Dec-13 20:31 36.012661 -115.101318 94 8244ft 226kts
10-Dec-13 20:32 36.007732 -115.025100 94 8040ft 222kts
10-Dec-13 20:33 36.002901 -114.948224 94 8039ft 225kts
10-Dec-13 20:34 35.998056 -114.870823 94 8012ft 226kts
10-Dec-13 20:35 35.993473 -114.797208 94 8021ft 191kts
10-Dec-13 20:36 35.989593 -114.734329 94 8000ft 181kts
10-Dec-13 20:37 35.985746 -114.671814 94 8000ft 182kts
10-Dec-13 20:38 35.985577 -114.609783 59 7989ft 183kts
10-Dec-13 20:39 36.034864 -114.596404 1 7996ft 188kts
10-Dec-13 20:40 36.071433 -114.627855 275 8017ft 192kts
10-Dec-13 20:41 36.073622 -114.693473 272 7985ft 183kts
10-Dec-13 20:42 36.074416 -114.744684 269 7681ft 177kts
10-Dec-13 20:43 36.073825 -114.806541 269 7414ft 155kts
10-Dec-13 20:44 36.072648 -114.851968 270 7204ft 161kts
10-Dec-13 20:45 36.074207 -114.908190 272 6989ft 164kts
10-Dec-13 20:46 36.075797 -114.959727 271 6299ft 143kts
10-Dec-13 20:47 36.075005 -115.015943 266 4345ft 134kts
10-Dec-13 20:48 36.073745 -115.058606 269 3219ft 117kts
10-Dec-13 20:49 36.073835 -115.092944 270 2857ft 127kts
10-Dec-13 20:50 36.073721 -115.134828 270 2189ft 77kts
10-Dec-13 20:51 36.074325 -115.144745 294 2189ft 0kts
10-Dec-13 20:52 36.074449 -115.145076 294 2189ft 12kts
10-Dec-13 20:53 36.077061 -115.146511 358 2189ft 0kts
10-Dec-13 20:54 36.077065 -115.146511 358 2189ft 0kts
10-Dec-13 20:55 36.078508 -115.147373 333 2189ft 31kts

Navigation Log

Ident Type
Flight plan parsing failed, navigation log unavailable